Time;durP1;ratioP1;P1;durP2;ratioP2;P2;SDS_P1;SDS_P2;PMS_P1;PMS_P2;Temp;Humidity;BMP_temperature;BMP_pressure;BME280_temperature;BME280_humidity;BME280_pressure;Samples;Min_cycle;Max_cycle;Signal;HPM_P1;HPM_P2
2023/01/15 00:01:30;;;;;;;55.55;33.22;;;102.70;2227.20;;;;;;5030154;28;20480;-62
2023/01/15 00:03:58;;;;;;;64.50;42.95;;;102.70;2227.20;;;;;;5030315;28;20496;-72
2023/01/15 00:06:26;;;;;;;63.40;42.80;;;102.70;2227.20;;;;;;5030331;28;20103;-62
2023/01/15 00:08:52;;;;;;;53.17;35.00;;;102.70;2227.20;;;;;;5030218;28;20057;-62
2023/01/15 00:11:19;;;;;;;51.38;34.28;;;102.70;2227.20;;;;;;5029957;28;20471;-63
2023/01/15 00:13:45;;;;;;;48.50;30.38;;;102.60;2227.20;;;;;;5030358;28;20067;-71
2023/01/15 00:16:17;;;;;;;56.95;32.67;;;102.70;2227.20;;;;;;5030357;28;20056;-62
2023/01/15 00:18:42;;;;;;;49.83;32.38;;;102.70;2227.20;;;;;;5030115;28;20032;-72
2023/01/15 00:21:12;;;;;;;90.90;50.03;;;102.60;2227.20;;;;;;5030398;28;20021;-71
2023/01/15 00:29:12;;;;;;;100.97;52.33;;;102.50;2227.20;;;;;;5030523;28;20117;-62
2023/01/15 00:31:38;;;;;;;101.03;49.17;;;102.50;2227.20;;;;;;5030375;28;20045;-60
2023/01/15 00:34:03;;;;;;;64.63;37.70;;;102.50;2227.20;;;;;;5030012;28;20022;-60
2023/01/15 00:36:30;;;;;;;87.57;48.40;;;102.50;2227.20;;;;;;5030312;28;20056;-69
2023/01/15 00:38:55;;;;;;;103.80;56.05;;;102.40;2227.20;;;;;;5030215;28;20121;-69
2023/01/15 00:41:22;;;;;;;39.17;22.25;;;102.50;2227.20;;;;;;5031490;28;20065;-61
2023/01/15 00:43:48;;;;;;;69.22;38.40;;;102.50;2227.20;;;;;;5033719;28;20038;-63
2023/01/15 00:46:13;;;;;;;71.60;39.63;;;102.40;2227.20;;;;;;5033965;28;20032;-62
2023/01/15 00:48:39;;;;;;;79.13;49.85;;;102.40;2227.20;;;;;;5033872;28;20037;-61
2023/01/15 00:51:05;;;;;;;82.50;50.35;;;102.40;2227.20;;;;;;5033759;28;20029;-61
2023/01/15 00:53:31;;;;;;;169.30;88.05;;;77.60;2227.20;;;;;;5033557;28;20113;-63
2023/01/15 00:55:57;;;;;;;84.53;47.85;;;102.50;2227.20;;;;;;5033399;28;20037;-61
2023/01/15 00:58:23;;;;;;;108.65;60.58;;;102.50;2227.20;;;;;;5035766;28;20056;-63
2023/01/15 01:00:56;;;;;;;153.40;67.00;;;102.60;2227.20;;;;;;5023609;28;20109;-62
2023/01/15 01:03:22;;;;;;;108.47;51.47;;;102.60;2227.20;;;;;;5043627;28;20493;-68
2023/01/15 01:05:48;;;;;;;88.65;47.30;;;102.60;2227.20;;;;;;5044245;28;20024;-68
2023/01/15 01:08:14;;;;;;;67.95;40.60;;;102.70;2227.20;;;;;;5043531;28;20060;-66
2023/01/15 01:10:40;;;;;;;63.42;37.28;;;102.70;2227.20;;;;;;5041910;28;20091;-62
2023/01/15 01:13:06;;;;;;;74.57;44.50;;;102.60;2227.20;;;;;;5038973;28;20419;-61
2023/01/15 01:15:36;;;;;;;71.90;47.00;;;102.50;2227.20;;;;;;5050098;28;20032;-62
2023/01/15 01:18:02;;;;;;;76.72;47.92;;;102.50;2227.20;;;;;;5042125;28;20108;-62
2023/01/15 01:20:28;;;;;;;106.72;64.78;;;102.50;2227.20;;;;;;5043586;28;20025;-68
2023/01/15 01:22:54;;;;;;;174.93;106.60;;;102.40;2227.20;;;;;;5040675;28;20120;-63
2023/01/15 01:25:20;;;;;;;205.27;122.10;;;77.70;2227.20;;;;;;5040539;28;20033;-63
2023/01/15 01:27:46;;;;;;;169.30;103.10;;;77.60;2227.20;;;;;;5049504;28;20055;-68
2023/01/15 01:30:13;;;;;;;123.68;77.97;;;77.60;2227.20;;;;;;5051705;28;20478;-61
2023/01/15 01:32:39;;;;;;;192.57;120.32;;;77.70;2227.20;;;;;;5049939;28;20483;-67
2023/01/15 01:35:05;;;;;;;176.55;106.05;;;77.60;2227.20;;;;;;5041970;28;20137;-59
2023/01/15 01:37:31;;;;;;;127.13;74.47;;;77.50;2227.20;;;;;;5040109;28;20030;-63
2023/01/15 01:39:57;;;;;;;96.15;60.53;;;77.50;2227.20;;;;;;5040087;28;20075;-71
2023/01/15 01:42:22;;;;;;;270.13;137.52;;;77.60;2227.20;;;;;;5055976;28;20052;-62
2023/01/15 01:44:48;;;;;;;117.57;68.95;;;77.50;2227.20;;;;;;5072835;28;20060;-62
2023/01/15 01:47:21;;;;;;;125.03;72.43;;;77.60;2227.20;;;;;;5072611;28;20063;-64
2023/01/15 01:49:55;;;;;;;107.22;58.72;;;77.60;2227.20;;;;;;5072455;28;20409;-61
2023/01/15 01:52:29;;;;;;;44.25;27.92;;;77.50;2227.20;;;;;;5071980;28;20032;-67
2023/01/15 01:54:56;;;;;;;37.25;23.77;;;77.40;2227.20;;;;;;5072276;28;20028;-73
2023/01/15 01:57:22;;;;;;;64.38;39.72;;;77.40;2227.20;;;;;;5072209;28;20119;-62
2023/01/15 01:59:49;;;;;;;219.40;120.15;;;77.30;2227.20;;;;;;5072349;28;20056;-72
2023/01/15 02:02:17;;;;;;;166.52;105.43;;;77.20;2227.20;;;;;;5072377;28;20033;-60
2023/01/15 02:04:43;;;;;;;267.08;147.93;;;77.30;2227.20;;;;;;5072009;28;20481;-62
2023/01/15 02:07:09;;;;;;;102.70;60.53;;;77.30;2227.20;;;;;;5072312;28;20024;-60
2023/01/15 02:09:35;;;;;;;177.20;110.03;;;77.20;2227.20;;;;;;5072073;28;20498;-61
2023/01/15 02:12:10;;;;;;;207.32;132.98;;;77.10;2227.20;;;;;;5071744;28;20028;-61
2023/01/15 02:14:53;;;;;;;218.32;139.52;;;77.00;2227.20;;;;;;5072129;28;20052;-71
2023/01/15 02:17:51;;;;;;;226.77;139.77;;;77.10;2227.20;;;;;;5072076;28;20032;-61
2023/01/15 02:20:37;;;;;;;106.68;62.97;;;77.00;2227.20;;;;;;5071800;28;20021;-69
2023/01/15 02:23:25;;;;;;;85.85;51.22;;;77.00;2227.20;;;;;;5071895;28;20041;-62
2023/01/15 02:25:51;;;;;;;91.20;55.85;;;76.90;2227.20;;;;;;5071707;28;20039;-62
2023/01/15 02:28:31;;;;;;;135.20;83.55;;;76.90;2227.20;;;;;;5071814;28;20028;-62
2023/01/15 02:31:23;;;;;;;101.13;64.25;;;76.80;2227.20;;;;;;5071871;28;20474;-62
2023/01/15 02:34:02;;;;;;;117.05;70.82;;;76.80;2227.20;;;;;;5071792;28;20024;-62
2023/01/15 02:36:32;;;;;;;140.35;82.55;;;76.80;2227.20;;;;;;5071730;28;20081;-70
2023/01/15 02:39:00;;;;;;;135.13;83.43;;;76.90;2227.20;;;;;;5071620;28;20501;-69
2023/01/15 02:41:32;;;;;;;134.55;84.35;;;52.10;2227.20;;;;;;5066289;28;20059;-69
2023/01/15 02:44:01;;;;;;;149.07;90.30;;;52.10;2227.20;;;;;;5051299;28;20044;-62
2023/01/15 02:46:31;;;;;;;156.75;96.00;;;51.70;2227.20;;;;;;5051552;28;20025;-62
2023/01/15 02:48:59;;;;;;;141.02;87.35;;;51.90;2227.20;;;;;;5051587;28;20538;-62
2023/01/15 02:51:30;;;;;;;199.55;116.63;;;52.10;2227.20;;;;;;5051295;28;20055;-62
2023/01/15 02:54:00;;;;;;;145.77;92.70;;;52.00;2227.20;;;;;;5051323;28;20031;-62
2023/01/15 02:56:30;;;;;;;122.15;74.90;;;51.90;2227.20;;;;;;5051259;28;20021;-62
2023/01/15 02:59:01;;;;;;;127.63;82.57;;;51.90;2227.20;;;;;;5051163;28;20029;-71
2023/01/15 03:01:51;;;;;;;180.77;113.78;;;51.70;2227.20;;;;;;5050995;28;20084;-62
2023/01/15 03:04:46;;;;;;;235.05;122.40;;;51.80;2227.20;;;;;;5050632;28;20072;-62
2023/01/15 03:07:26;;;;;;;133.48;82.63;;;51.60;2227.20;;;;;;5051038;28;20110;-62
2023/01/15 03:09:55;;;;;;;191.45;108.07;;;51.60;2227.20;;;;;;5050907;28;20029;-69
2023/01/15 03:13:02;;;;;;;205.27;113.22;;;51.50;2227.20;;;;;;5050467;28;20549;-62
2023/01/15 03:18:47;;;;;;;162.52;104.10;;;51.60;2227.20;;;;;;5050869;28;20062;-67
2023/01/15 03:21:18;;;;;;;132.32;80.75;;;51.60;2227.20;;;;;;5050766;28;20166;-62
2023/01/15 03:23:48;;;;;;;128.32;79.07;;;51.50;2227.20;;;;;;5050586;28;20037;-69
2023/01/15 03:26:14;;;;;;;186.18;113.60;;;51.50;2227.20;;;;;;5050561;28;20446;-64
2023/01/15 03:28:40;;;;;;;201.85;114.00;;;51.40;2227.20;;;;;;5050770;28;20052;-69
2023/01/15 03:31:06;;;;;;;174.65;101.38;;;51.40;2227.20;;;;;;5050782;28;20024;-61
2023/01/15 03:33:33;;;;;;;628.75;256.30;;;51.40;2227.20;;;;;;5050319;28;20025;-62
2023/01/15 03:36:00;;;;;;;452.38;206.32;;;51.30;2227.20;;;;;;5050593;28;20029;-62
2023/01/15 03:38:32;;;;;;;473.73;223.02;;;26.50;2201.60;;;;;;5050700;28;20092;-62
2023/01/15 03:41:24;;;;;;;528.22;230.05;;;51.20;2073.60;;;;;;5050321;28;20025;-69
2023/01/15 03:44:16;;;;;;;563.22;232.30;;;51.30;2227.20;;;;;;5050001;28;20056;-73
2023/01/15 03:47:07;;;;;;;565.67;243.32;;;26.50;2201.60;;;;;;5050279;28;20025;-71
2023/01/15 03:49:55;;;;;;;464.73;210.38;;;51.30;2227.20;;;;;;5050359;28;20032;-70
2023/01/15 03:52:34;;;;;;;455.80;204.80;;;51.20;2227.20;;;;;;5050081;28;20510;-62
2023/01/15 03:55:23;;;;;;;305.83;138.55;;;51.30;2227.20;;;;;;5050424;28;20086;-62
2023/01/15 03:57:51;;;;;;;329.77;157.18;;;51.20;2227.20;;;;;;5050338;28;20021;-62
2023/01/15 04:00:24;;;;;;;200.75;121.75;;;51.20;2227.20;;;;;;5050429;28;20025;-62
2023/01/15 04:02:51;;;;;;;133.33;78.00;;;26.50;2201.60;;;;;;5050055;28;20475;-62
2023/01/15 04:05:17;;;;;;;163.93;101.38;;;26.40;2201.60;;;;;;5050325;28;20074;-71
2023/01/15 04:07:45;;;;;;;187.02;111.78;;;26.40;2201.60;;;;;;5050112;28;20048;-62
2023/01/15 04:10:11;;;;;;;94.82;58.03;;;26.40;2201.60;;;;;;5049976;28;20158;-62
2023/01/15 04:12:37;;;;;;;133.35;81.00;;;26.40;2201.60;;;;;;5050277;28;20112;-61
2023/01/15 04:15:03;;;;;;;152.00;90.72;;;26.40;2201.60;;;;;;5051587;28;20033;-61
2023/01/15 04:17:29;;;;;;;120.85;74.78;;;26.40;2201.60;;;;;;5054404;28;20021;-70
2023/01/15 04:19:54;;;;;;;190.07;110.70;;;26.30;2201.60;;;;;;5054162;28;20032;-69
2023/01/15 04:22:20;;;;;;;212.20;127.35;;;26.40;2201.60;;;;;;5054062;28;20040;-62
2023/01/15 04:24:46;;;;;;;200.75;114.43;;;26.40;2201.60;;;;;;5035806;28;20036;-63
2023/01/15 04:27:11;;;;;;;193.80;112.95;;;26.30;2201.60;;;;;;5053841;28;20108;-67
2023/01/15 04:29:37;;;;;;;176.85;107.18;;;26.40;2201.60;;;;;;5054084;28;20512;-71
2023/01/15 04:32:03;;;;;;;189.70;105.65;;;26.40;2201.60;;;;;;5053767;28;20517;-61
2023/01/15 04:34:29;;;;;;;152.93;91.47;;;26.30;2201.60;;;;;;5053992;28;20040;-72
2023/01/15 04:36:56;;;;;;;155.75;100.00;;;26.30;2201.60;;;;;;5054093;28;20029;-62
2023/01/15 04:39:22;;;;;;;501.58;203.27;;;26.30;2201.60;;;;;;5053732;28;20075;-62
2023/01/15 04:44:34;;;;;;;172.60;100.97;;;26.20;2201.60;;;;;;5053940;28;20055;-61
2023/01/15 04:47:00;;;;;;;182.32;101.93;;;26.20;2201.60;;;;;;5053643;28;20031;-61
2023/01/15 04:49:26;;;;;;;166.68;100.28;;;26.20;2201.60;;;;;;5053736;28;20029;-70
2023/01/15 04:51:52;;;;;;;173.18;91.80;;;26.20;2201.60;;;;;;5053557;28;20050;-61
2023/01/15 04:54:19;;;;;;;144.73;84.28;;;26.20;2201.60;;;;;;5053717;28;20029;-62
2023/01/15 04:56:50;;;;;;;127.15;72.93;;;26.20;2201.60;;;;;;5053347;28;20029;-63
2023/01/15 04:59:19;;;;;;;112.72;63.65;;;26.20;2201.60;;;;;;5053617;28;20375;-70
2023/01/15 05:01:45;;;;;;;112.30;63.33;;;26.30;2201.60;;;;;;5053212;28;20471;-62
2023/01/15 05:04:11;;;;;;;91.28;51.55;;;26.20;2201.60;;;;;;5053225;28;20044;-63
2023/01/15 05:06:37;;;;;;;113.55;63.75;;;26.20;2201.60;;;;;;5053206;28;20060;-62
2023/01/15 05:09:04;;;;;;;122.03;64.43;;;26.00;2201.60;;;;;;5053108;28;20023;-63
2023/01/15 05:11:30;;;;;;;101.85;56.88;;;25.90;2201.60;;;;;;5053117;28;20079;-71
2023/01/15 05:13:56;;;;;;;50.58;29.15;;;26.00;2201.60;;;;;;5053243;28;20440;-62
2023/01/15 05:16:23;;;;;;;46.60;26.90;;;;;;;;;;5052900;28;20057;-62
2023/01/15 05:18:50;;;;;;;40.90;27.38;;;;;;;;;;5053142;28;20025;-62
2023/01/15 05:21:24;;;;;;;62.30;38.03;;;;;;;;;;5053342;28;20029;-62
2023/01/15 05:23:51;;;;;;;46.28;30.20;;;;;;;;;;5053110;28;20041;-66
2023/01/15 05:26:17;;;;;;;98.82;56.22;;;;;;;;;;5052162;28;20051;-62
2023/01/15 05:28:43;;;;;;;71.63;39.15;;;;;;;;;;5052725;28;20116;-62
2023/01/15 05:31:11;;;;;;;141.15;89.88;;;;;;;;;;5053076;28;20117;-63
2023/01/15 05:33:37;;;;;;;140.85;84.65;;;;;;;;;;5052950;28;20025;-62
2023/01/15 05:36:08;;;;;;;131.48;85.18;;;;;;;;;;5052691;28;20032;-62
2023/01/15 05:38:34;;;;;;;147.75;94.75;;;;;;;;;;5052617;28;20027;-61
2023/01/15 05:41:49;;;;;;;143.85;88.20;;;;;;;;;;5052645;28;20036;-61
2023/01/15 05:43:51;;;;;;;147.50;86.32;;;;;;;;;;5041793;28;20049;-62
2023/01/15 05:46:17;;;;;;;139.38;80.43;;;;;;;;;;5052687;28;20055;-61
2023/01/15 05:48:43;;;;;;;141.90;86.93;;;;;;;;;;5052557;28;20029;-61
2023/01/15 05:51:09;;;;;;;133.10;82.43;;;;;;;;;;5052687;28;20021;-62
2023/01/15 05:53:36;;;;;;;131.88;83.00;;;;;;;;;;5052679;28;20033;-62
2023/01/15 05:56:02;;;;;;;125.38;76.95;;;;;;;;;;5052206;28;20064;-62
2023/01/15 05:58:28;;;;;;;110.30;69.75;;;;;;;;;;5052336;28;20578;-70
2023/01/15 06:00:54;;;;;;;86.90;53.28;;;;;;;;;;5052254;28;20056;-61
2023/01/15 06:03:24;;;;;;;93.88;58.70;;;;;;;;;;5052338;28;20115;-62
2023/01/15 06:05:52;;;;;;;105.75;71.00;;;;;;;;;;5052328;28;20493;-62
2023/01/15 06:08:18;;;;;;;105.40;63.75;;;;;;;;;;5052537;28;20032;-71
2023/01/15 06:10:45;;;;;;;111.15;61.90;;;;;;;;;;5051956;28;20497;-61
2023/01/15 06:13:11;;;;;;;244.95;123.82;;;;;;;;;;5051854;28;20032;-61
2023/01/15 06:15:37;;;;;;;76.22;44.28;;;;;;;;;;5052278;28;20462;-71
2023/01/15 06:18:03;;;;;;;66.82;37.70;;;;;;;;;;5051890;28;20040;-70
2023/01/15 06:20:30;;;;;;;61.67;36.78;;;;;;;;;;5052266;28;20736;-70
2023/01/15 06:22:56;;;;;;;53.35;32.72;;;;;;;;;;5052082;28;20037;-62
2023/01/15 06:25:22;;;;;;;81.00;44.40;;;;;;;;;;5051774;28;20052;-62
2023/01/15 06:27:48;;;;;;;69.53;42.38;;;;;;;;;;5051845;28;20036;-62
2023/01/15 06:30:15;;;;;;;61.08;40.67;;;;;;;;;;5051883;28;20032;-70
2023/01/15 06:32:41;;;;;;;44.03;29.27;;;;;;;;;;5051846;28;20115;-62
2023/01/15 06:35:07;;;;;;;40.33;26.17;;;;;;;;;;5051921;28;20058;-60
2023/01/15 06:37:33;;;;;;;22.17;15.05;;;;;;;;;;5051758;28;20115;-63
2023/01/15 06:39:59;;;;;;;33.42;22.77;;;;;;;;;;5051792;28;20036;-63
2023/01/15 06:47:56;;;;;;;29.13;18.77;;;;;;;;;;5051581;28;20036;-69
2023/01/15 06:50:22;;;;;;;39.65;31.15;;;;;;;;;;5051430;28;20044;-62
2023/01/15 06:52:48;;;;;;;28.77;23.85;;;;;;;;;;5051426;28;20017;-62
2023/01/15 06:55:14;;;;;;;27.73;23.23;;;;;;;;;;5051280;28;20029;-62
2023/01/15 06:57:40;;;;;;;20.92;13.23;;;;;;;;;;5051160;28;20052;-62
2023/01/15 07:00:07;;;;;;;89.70;76.95;;;;;;;;;;5051033;28;20036;-62
2023/01/15 07:02:33;;;;;;;46.03;33.65;;;;;;;;;;5050989;28;20037;-62
2023/01/15 07:04:59;;;;;;;46.10;32.65;;;;;;;;;;5051125;28;20027;-62
2023/01/15 07:07:27;;;;;;;40.65;33.83;;;;;;;;;;5050909;28;20104;-63
2023/01/15 07:09:53;;;;;;;29.27;21.48;;;;;;;;;;5050833;28;20021;-63
2023/01/15 07:12:19;;;;;;;30.58;23.40;;;;;;;;;;5050926;28;20029;-62
2023/01/15 07:14:45;;;;;;;29.65;21.90;;;;;;;;;;5050940;28;20033;-63
2023/01/15 07:17:12;;;;;;;31.23;19.73;;;;;;;;;;5050682;28;20043;-70
2023/01/15 07:19:38;;;;;;;37.75;28.73;;;;;;;;;;5049375;28;20029;-62
2023/01/15 07:22:04;;;;;;;27.25;22.77;;;;;;;;;;5050620;28;20082;-62
2023/01/15 07:24:30;;;;;;;30.08;19.02;;;;;;;;;;5050854;28;20025;-62
2023/01/15 07:26:56;;;;;;;27.15;18.42;;;;;;;;;;5051070;28;20429;-62
2023/01/15 07:29:23;;;;;;;58.28;36.00;;;;;;;;;;5050457;28;20470;-62
2023/01/15 07:31:49;;;;;;;62.75;41.53;;;;;;;;;;5050954;28;20029;-61
2023/01/15 07:34:18;;;;;;;133.98;82.65;;;;;;;;;;5050462;28;20021;-62
2023/01/15 07:36:44;;;;;;;248.35;158.48;;;;;;;;;;5050241;28;20025;-71
2023/01/15 07:39:10;;;;;;;262.33;169.43;;;;;;;;;;5050693;28;20025;-61
2023/01/15 07:50:18;;;;;;;74.88;49.75;;;;;;;;;;5050527;28;20085;-71
2023/01/15 07:52:44;;;;;;;86.53;52.80;;;;;;;;;;5050270;28;20107;-61
2023/01/15 07:55:12;;;;;;;67.63;41.90;;;;;;;;;;5050442;28;20137;-61
2023/01/15 07:57:38;;;;;;;69.20;42.13;;;;;;;;;;5050112;28;20033;-63
2023/01/15 08:00:05;;;;;;;48.28;33.17;;;;;;;;;;5050172;28;20033;-62
2023/01/15 08:02:31;;;;;;;36.63;22.77;;;;;;;;;;5048547;28;20045;-63
2023/01/15 08:04:57;;;;;;;34.53;25.70;;;;;;;;;;5050517;28;20104;-62
2023/01/15 08:07:23;;;;;;;24.23;14.00;;;;;;;;;;5050166;28;20091;-63
2023/01/15 08:09:49;;;;;;;21.13;15.07;;;;;;;;;;5050387;28;20352;-63
2023/01/15 08:15:12;;;;;;;31.60;19.05;;;;;;;;;;5050266;28;20083;-69
2023/01/15 08:17:40;;;;;;;31.63;19.88;;;102.90;2227.20;;;;;;5050280;28;20025;-62
2023/01/15 08:20:13;;;;;;;42.53;28.33;;;128.50;2252.80;;;;;;5050338;28;20033;-62
2023/01/15 08:22:39;;;;;;;70.07;53.17;;;128.90;2252.80;;;;;;5050294;28;20128;-70
2023/01/15 08:25:07;;;;;;;75.93;61.15;;;179.40;2252.80;;;;;;5050077;28;20163;-62
2023/01/15 08:27:32;;;;;;;54.75;44.17;;;204.90;2252.80;;;;;;5049794;28;20031;-62
2023/01/15 08:29:58;;;;;;;86.35;66.70;;;230.60;2252.80;;;;;;5050183;28;20021;-63
2023/01/15 08:32:24;;;;;;;171.20;127.75;;;281.60;2278.40;;;;;;5050043;28;20032;-62
2023/01/15 08:34:50;;;;;;;81.65;67.25;;;307.40;2304.00;;;;;;5049988;28;20031;-70
2023/01/15 08:37:16;;;;;;;49.08;38.22;;;332.90;2252.80;;;;;;5049933;28;20029;-63
2023/01/15 08:39:41;;;;;;;40.63;32.88;;;358.50;2099.20;;;;;;5049860;28;20031;-62
2023/01/15 08:42:07;;;;;;;28.75;24.50;;;358.70;2048.00;;;;;;5049913;28;20053;-62
2023/01/15 08:44:33;;;;;;;26.08;21.90;;;358.60;2022.40;;;;;;5049700;28;20087;-69
2023/01/15 08:46:59;;;;;;;38.90;31.55;;;333.20;2073.60;;;;;;5049940;28;20032;-62
2023/01/15 08:49:25;;;;;;;50.72;42.97;;;307.50;2150.40;;;;;;5049519;28;20048;-62
2023/01/15 08:51:51;;;;;;;69.78;54.05;;;256.70;2252.80;;;;;;5049848;28;20112;-62
2023/01/15 08:54:19;;;;;;;71.85;59.88;;;256.20;2252.80;;;;;;5049930;28;20508;-62
2023/01/15 08:56:45;;;;;;;129.82;116.07;;;282.20;2278.40;;;;;;5049378;28;20044;-63
2023/01/15 08:59:10;;;;;;;147.80;124.80;;;332.90;2227.20;;;;;;5049610;28;20025;-63
2023/01/15 09:01:36;;;;;;;162.23;142.85;;;358.60;2124.80;;;;;;5050808;28;20032;-62
2023/01/15 09:04:02;;;;;;;136.73;121.85;;;359.20;2022.40;;;;;;5053524;28;20462;-63
2023/01/15 09:06:28;;;;;;;132.13;117.72;;;384.30;1920.00;;;;;;5053327;28;20028;-70
2023/01/15 09:08:53;;;;;;;135.68;121.18;;;384.70;1894.40;;;;;;5053145;28;20033;-62
2023/01/15 09:11:19;;;;;;;140.98;126.18;;;384.50;1894.40;;;;;;5053353;28;20021;-64
2023/01/15 09:13:46;;;;;;;147.98;132.98;;;384.70;1894.40;;;;;;5049880;28;20041;-63
2023/01/15 09:16:12;;;;;;;121.00;108.35;;;409.60;1894.40;;;;;;5043606;28;20025;-66
2023/01/15 09:18:40;;;;;;;132.43;116.60;;;410.40;1817.60;;;;;;5042252;28;20475;-63
2023/01/15 09:21:06;;;;;;;174.75;155.93;;;409.70;1868.80;;;;;;5052735;28;20537;-64
2023/01/15 09:23:32;;;;;;;188.02;167.57;;;410.00;1843.20;;;;;;5052851;28;20041;-63
2023/01/15 09:26:00;;;;;;;218.18;195.52;;;410.20;1843.20;;;;;;5034324;28;20476;-62
2023/01/15 09:28:27;;;;;;;221.82;198.23;;;410.00;1843.20;;;;;;5032788;28;20029;-69
2023/01/15 09:30:53;;;;;;;257.02;229.68;;;435.40;1817.60;;;;;;5032836;28;20033;-60
2023/01/15 09:33:19;;;;;;;195.50;174.65;;;409.90;1843.20;;;;;;5033080;28;20047;-59
2023/01/15 09:35:45;;;;;;;186.45;167.15;;;409.70;1894.40;;;;;;5031126;28;20046;-60
2023/01/15 09:38:12;;;;;;;198.25;178.15;;;410.10;1868.80;;;;;;5028142;28;20836;-63
2023/01/15 09:40:56;;;;;;;222.45;199.82;;;410.30;1868.80;;;;;;5031866;28;20098;-61
2023/01/15 09:43:46;;;;;;;229.27;205.23;;;410.20;1868.80;;;;;;5041878;28;20124;-60
2023/01/15 09:46:14;;;;;;;182.88;163.95;;;409.80;1868.80;;;;;;5049740;28;20033;-62
2023/01/15 09:48:46;;;;;;;162.95;145.75;;;435.60;1817.60;;;;;;5051131;28;20020;-60
2023/01/15 09:51:14;;;;;;;147.88;132.35;;;435.40;1817.60;;;;;;5050262;28;20021;-59
2023/01/15 09:53:50;;;;;;;168.05;148.60;;;409.90;1868.80;;;;;;5049853;28;20052;-59
2023/01/15 09:56:36;;;;;;;121.95;108.20;;;409.70;1868.80;;;;;;5050849;28;20020;-58
2023/01/15 09:59:15;;;;;;;182.13;145.05;;;359.30;1920.00;;;;;;5048024;28;20033;-58
2023/01/15 10:01:42;;;;;;;144.52;115.75;;;333.60;2048.00;;;;;;5050397;28;20464;-59
2023/01/15 10:04:36;;;;;;;117.13;94.80;;;308.10;2124.80;;;;;;5050841;28;20091;-61
2023/01/15 10:07:38;;;;;;;133.13;103.72;;;282.30;2176.00;;;;;;5048552;28;20524;-59
2023/01/15 10:10:12;;;;;;;150.95;118.00;;;256.80;2252.80;;;;;;5006781;28;20549;-57
2023/01/15 10:12:39;;;;;;;170.50;129.57;;;256.00;2252.80;;;;;;5005723;28;20121;-57
2023/01/15 10:15:16;;;;;;;173.98;126.93;;;231.00;2252.80;;;;;;5007832;28;20057;-59
2023/01/15 10:17:41;;;;;;;140.07;102.88;;;231.00;2252.80;;;;;;5007062;28;20124;-61
2023/01/15 10:20:26;;;;;;;145.68;112.50;;;230.80;2252.80;;;;;;5004522;28;20105;-59
2023/01/15 10:22:52;;;;;;;146.23;106.80;;;230.80;2252.80;;;;;;5005874;28;20041;-58
2023/01/15 10:25:26;;;;;;;138.05;98.05;;;230.90;2252.80;;;;;;5006090;28;20022;-61
2023/01/15 10:27:52;;;;;;;137.23;100.63;;;230.80;2252.80;;;;;;5006569;28;20123;-61
2023/01/15 10:30:36;;;;;;;134.98;98.85;;;230.70;2252.80;;;;;;5006979;28;20026;-60
2023/01/15 10:33:33;;;;;;;113.82;85.70;;;230.70;2252.80;;;;;;5006924;28;20030;-59
2023/01/15 10:36:12;;;;;;;104.07;76.97;;;230.60;2252.80;;;;;;4948932;29;20039;-59
2023/01/15 10:38:49;;;;;;;103.47;78.13;;;230.50;2252.80;;;;;;4948936;29;20054;-61
2023/01/15 10:41:48;;;;;;;82.35;61.35;;;230.60;2252.80;;;;;;4948489;28;20397;-58
2023/01/15 10:44:32;;;;;;;87.47;67.78;;;230.60;2252.80;;;;;;4947846;29;20090;-60
2023/01/15 10:47:00;;;;;;;83.93;62.40;;;230.60;2252.80;;;;;;4934540;29;20411;-59
2023/01/15 10:49:30;;;;;;;69.05;49.08;;;230.60;2252.80;;;;;;4934703;29;20023;-57
2023/01/15 10:52:02;;;;;;;49.30;39.13;;;230.70;2252.80;;;;;;4942228;28;20023;-58
2023/01/15 10:54:30;;;;;;;60.33;44.10;;;230.70;2252.80;;;;;;4930033;29;20070;-59
2023/01/15 10:57:26;;;;;;;55.83;42.92;;;230.70;2252.80;;;;;;4948663;29;20030;-57
2023/01/15 10:59:57;;;;;;;59.78;43.30;;;230.70;2252.80;;;;;;4947715;29;20122;-58
2023/01/15 11:02:34;;;;;;;58.63;42.67;;;230.80;2252.80;;;;;;4947899;29;20371;-57
2023/01/15 11:05:01;;;;;;;55.92;42.28;;;231.00;2252.80;;;;;;4947947;28;20031;-59
2023/01/15 11:07:32;;;;;;;57.28;43.10;;;231.00;2252.80;;;;;;4948315;28;20038;-57
2023/01/15 11:10:02;;;;;;;50.88;38.80;;;231.10;2252.80;;;;;;4947591;29;20106;-61
2023/01/15 11:20:47;;;;;;;76.13;56.08;;;231.20;2252.80;;;;;;5050213;28;20079;-57
2023/01/15 11:23:20;;;;;;;88.13;62.72;;;231.20;2252.80;;;;;;5041988;28;20086;-61
2023/01/15 11:25:58;;;;;;;70.73;52.53;;;231.30;2252.80;;;;;;5039505;28;20017;-60
2023/01/15 11:28:39;;;;;;;72.43;51.53;;;256.00;2252.80;;;;;;5047778;28;20541;-61
2023/01/15 11:31:06;;;;;;;79.28;55.90;;;256.10;2252.80;;;;;;5050148;28;20068;-58
2023/01/15 11:33:32;;;;;;;71.85;53.08;;;256.20;2252.80;;;;;;5049014;28;20049;-58
2023/01/15 11:36:01;;;;;;;59.58;41.22;;;256.30;2252.80;;;;;;5050364;28;20632;-58
2023/01/15 11:38:30;;;;;;;55.65;40.67;;;256.50;2252.80;;;;;;5050288;28;20108;-60
2023/01/15 11:41:01;;;;;;;18.17;12.40;;;256.70;2252.80;;;;;;5050297;28;20344;-59
2023/01/15 11:52:07;;;;;;;27.52;19.70;;;281.90;2278.40;;;;;;5048743;28;20036;-59
2023/01/15 11:54:37;;;;;;;42.47;31.08;;;281.90;2278.40;;;;;;5048889;28;20060;-59
2023/01/15 11:57:05;;;;;;;33.72;25.15;;;282.00;2278.40;;;;;;5049016;28;20020;-59
2023/01/15 11:59:31;;;;;;;31.27;20.98;;;282.00;2227.20;;;;;;5048770;28;20037;-62
2023/01/15 12:02:05;;;;;;;46.38;30.35;;;282.00;2278.40;;;;;;5049123;28;20040;-58
2023/01/15 12:04:52;;;;;;;45.20;30.23;;;282.10;2278.40;;;;;;5046719;28;20558;-57
2023/01/15 12:07:18;;;;;;;15.05;9.77;;;282.10;2252.80;;;;;;5048135;28;20044;-59
2023/01/15 12:10:10;;;;;;;17.67;10.60;;;282.10;2252.80;;;;;;5048780;28;20467;-57
2023/01/15 12:13:07;;;;;;;10.75;7.47;;;282.10;2278.40;;;;;;5047153;28;20029;-58
2023/01/15 12:15:53;;;;;;;20.73;10.55;;;282.10;2278.40;;;;;;5046483;28;20025;-58
2023/01/15 12:18:22;;;;;;;27.38;20.35;;;282.10;2252.80;;;;;;5049817;28;20029;-57
2023/01/15 12:21:03;;;;;;;11.60;9.02;;;282.20;2278.40;;;;;;5050146;28;20379;-56
2023/01/15 12:24:16;;;;;;;16.08;9.45;;;282.20;2278.40;;;;;;5050139;28;20544;-57
2023/01/15 12:26:59;;;;;;;21.17;14.18;;;282.30;2278.40;;;;;;4969323;28;20074;-61
2023/01/15 12:29:29;;;;;;;44.50;32.30;;;282.30;2278.40;;;;;;4968769;28;20038;-57
2023/01/15 12:32:03;;;;;;;97.57;60.85;;;282.30;2278.40;;;;;;4969118;28;20492;-56
2023/01/15 12:34:52;;;;;;;33.15;23.98;;;282.30;2278.40;;;;;;4969109;28;20085;-57
2023/01/15 12:37:25;;;;;;;76.50;49.85;;;282.30;2278.40;;;;;;4980504;28;20077;-62
2023/01/15 12:39:54;;;;;;;61.05;37.30;;;282.40;2278.40;;;;;;4982621;28;20490;-60
2023/01/15 12:45:32;;;;;;;45.17;23.52;;;282.50;2278.40;;;;;;4998518;28;20085;-60
2023/01/15 12:48:12;;;;;;;78.82;42.80;;;282.50;2252.80;;;;;;5000267;28;20036;-55
2023/01/15 12:50:51;;;;;;;37.35;26.33;;;282.50;2227.20;;;;;;5000589;28;20038;-61
2023/01/15 12:53:22;;;;;;;11.65;8.18;;;282.50;2227.20;;;;;;5000582;28;20029;-61
2023/01/15 12:56:08;;;;;;;16.80;14.77;;;307.20;2278.40;;;;;;4998052;28;20113;-57
2023/01/15 12:58:43;;;;;;;27.55;24.60;;;307.30;2252.80;;;;;;4998625;28;20033;-61
2023/01/15 13:01:18;;;;;;;29.13;20.48;;;307.20;2252.80;;;;;;4997292;28;20093;-58
2023/01/15 13:04:05;;;;;;;64.93;45.45;;;307.30;2227.20;;;;;;5042239;28;20041;-58
2023/01/15 13:06:33;;;;;;;72.88;44.67;;;307.30;2227.20;;;;;;5053315;28;20025;-57
2023/01/15 13:09:13;;;;;;;53.78;34.97;;;307.30;2252.80;;;;;;5053475;28;20060;-57
2023/01/15 13:11:39;;;;;;;99.95;55.92;;;307.30;2227.20;;;;;;5052983;28;20024;-57
2023/01/15 13:14:16;;;;;;;112.63;72.88;;;307.30;2201.60;;;;;;5053212;28;20037;-58
2023/01/15 13:16:53;;;;;;;27.13;17.92;;;307.30;2176.00;;;;;;5053347;28;20032;-58
2023/01/15 13:19:31;;;;;;;147.00;81.20;;;307.30;2201.60;;;;;;5053317;28;20456;-57
2023/01/15 13:22:04;;;;;;;606.30;360.55;;;307.20;2201.60;;;;;;5053288;28;20099;-57
2023/01/15 13:24:45;;;;;;;347.23;203.93;;;307.30;2227.20;;;;;;5052929;28;20064;-60
2023/01/15 13:27:23;;;;;;;534.67;350.42;;;307.30;2201.60;;;;;;5052216;28;20009;-58